sensor_id;sensor_type;location;lat;lon;timestamp;pressure;altitude;pressure_sealevel;temperature;humidity
23341;BME280;12239;53.404;23.492;2022-07-10T00:02:11;99521.46;;;13.07;100.00
23341;BME280;12239;53.404;23.492;2022-07-10T00:05:01;99521.75;;;12.96;100.00
23341;BME280;12239;53.404;23.492;2022-07-10T00:07:50;99522.39;;;12.85;100.00
23341;BME280;12239;53.404;23.492;2022-07-10T00:10:40;99512.59;;;12.76;100.00
23341;BME280;12239;53.404;23.492;2022-07-10T00:13:30;99514.59;;;12.68;100.00
23341;BME280;12239;53.404;23.492;2022-07-10T00:16:19;99509.94;;;12.62;100.00
23341;BME280;12239;53.404;23.492;2022-07-10T00:19:09;99511.26;;;12.61;100.00
23341;BME280;12239;53.404;23.492;2022-07-10T00:21:58;99509.59;;;12.58;100.00
23341;BME280;12239;53.404;23.492;2022-07-10T00:24:48;99508.06;;;12.56;100.00
23341;BME280;12239;53.404;23.492;2022-07-10T00:27:38;99505.02;;;12.52;100.00
23341;BME280;12239;53.404;23.492;2022-07-10T00:30:29;99505.08;;;12.52;100.00
23341;BME280;12239;53.404;23.492;2022-07-10T00:33:19;99504.71;;;12.51;100.00
23341;BME280;12239;53.404;23.492;2022-07-10T00:36:08;99503.37;;;12.51;100.00
23341;BME280;12239;53.404;23.492;2022-07-10T00:38:58;99503.62;;;12.52;100.00
23341;BME280;12239;53.404;23.492;2022-07-10T00:41:47;99497.12;;;12.53;100.00
23341;BME280;12239;53.404;23.492;2022-07-10T00:44:37;99496.13;;;12.52;100.00
23341;BME280;12239;53.404;23.492;2022-07-10T00:47:27;99490.52;;;12.52;100.00
23341;BME280;12239;53.404;23.492;2022-07-10T00:50:16;99486.49;;;12.50;100.00
23341;BME280;12239;53.404;23.492;2022-07-10T00:53:06;99485.21;;;12.52;100.00
23341;BME280;12239;53.404;23.492;2022-07-10T00:55:55;99481.00;;;12.53;100.00
23341;BME280;12239;53.404;23.492;2022-07-10T00:58:45;99481.98;;;12.52;100.00
23341;BME280;12239;53.404;23.492;2022-07-10T01:01:35;99478.00;;;12.51;100.00
23341;BME280;12239;53.404;23.492;2022-07-10T01:04:25;99477.02;;;12.46;100.00
23341;BME280;12239;53.404;23.492;2022-07-10T01:07:14;99469.72;;;12.45;100.00
23341;BME280;12239;53.404;23.492;2022-07-10T01:10:04;99462.74;;;12.48;100.00
23341;BME280;12239;53.404;23.492;2022-07-10T01:12:54;99457.89;;;12.51;100.00
23341;BME280;12239;53.404;23.492;2022-07-10T01:15:44;99457.86;;;12.54;100.00
23341;BME280;12239;53.404;23.492;2022-07-10T01:18:34;99453.20;;;12.53;100.00
23341;BME280;12239;53.404;23.492;2022-07-10T01:21:24;99449.73;;;12.50;100.00
23341;BME280;12239;53.404;23.492;2022-07-10T01:24:13;99447.90;;;12.46;100.00
23341;BME280;12239;53.404;23.492;2022-07-10T01:27:03;99445.19;;;12.44;100.00
23341;BME280;12239;53.404;23.492;2022-07-10T01:29:53;99445.52;;;12.41;100.00
23341;BME280;12239;53.404;23.492;2022-07-10T01:32:43;99441.08;;;12.35;100.00
23341;BME280;12239;53.404;23.492;2022-07-10T01:35:32;99444.66;;;12.26;100.00
23341;BME280;12239;53.404;23.492;2022-07-10T01:38:22;99445.52;;;12.21;100.00
23341;BME280;12239;53.404;23.492;2022-07-10T01:41:12;99445.13;;;12.18;100.00
23341;BME280;12239;53.404;23.492;2022-07-10T01:44:01;99439.44;;;12.13;100.00
23341;BME280;12239;53.404;23.492;2022-07-10T01:46:51;99436.60;;;12.06;100.00
23341;BME280;12239;53.404;23.492;2022-07-10T01:49:40;99435.19;;;11.99;100.00
23341;BME280;12239;53.404;23.492;2022-07-10T01:52:30;99433.16;;;11.92;100.00
23341;BME280;12239;53.404;23.492;2022-07-10T01:55:19;99433.02;;;11.90;100.00
23341;BME280;12239;53.404;23.492;2022-07-10T01:58:09;99430.92;;;11.82;100.00
23341;BME280;12239;53.404;23.492;2022-07-10T02:00:59;99435.38;;;11.72;100.00
23341;BME280;12239;53.404;23.492;2022-07-10T02:03:44;99430.79;;;11.63;100.00
23341;BME280;12239;53.404;23.492;2022-07-10T02:06:52;99430.38;;;11.52;100.00
23341;BME280;12239;53.404;23.492;2022-07-10T02:09:41;99436.17;;;11.46;100.00
23341;BME280;12239;53.404;23.492;2022-07-10T02:12:31;99437.10;;;11.40;100.00
23341;BME280;12239;53.404;23.492;2022-07-10T02:15:00;99440.09;;;11.34;100.00
23341;BME280;12239;53.404;23.492;2022-07-10T02:17:50;99438.27;;;11.32;100.00
23341;BME280;12239;53.404;23.492;2022-07-10T02:20:39;99438.34;;;11.33;100.00
23341;BME280;12239;53.404;23.492;2022-07-10T02:23:29;99439.76;;;11.35;100.00
23341;BME280;12239;53.404;23.492;2022-07-10T02:26:18;99440.94;;;11.36;100.00
23341;BME280;12239;53.404;23.492;2022-07-10T02:29:08;99435.56;;;11.36;100.00
23341;BME280;12239;53.404;23.492;2022-07-10T02:31:58;99433.39;;;11.37;100.00
23341;BME280;12239;53.404;23.492;2022-07-10T02:34:47;99428.27;;;11.39;100.00
23341;BME280;12239;53.404;23.492;2022-07-10T02:37:37;99425.59;;;11.44;100.00
23341;BME280;12239;53.404;23.492;2022-07-10T02:40:26;99419.16;;;11.49;100.00
23341;BME280;12239;53.404;23.492;2022-07-10T02:43:16;99415.14;;;11.54;100.00
23341;BME280;12239;53.404;23.492;2022-07-10T02:46:06;99419.58;;;11.62;100.00
23341;BME280;12239;53.404;23.492;2022-07-10T02:48:55;99425.52;;;11.72;100.00
23341;BME280;12239;53.404;23.492;2022-07-10T02:51:45;99425.16;;;11.78;100.00
23341;BME280;12239;53.404;23.492;2022-07-10T02:54:35;99422.26;;;11.84;100.00
23341;BME280;12239;53.404;23.492;2022-07-10T02:57:24;99420.64;;;11.92;100.00
23341;BME280;12239;53.404;23.492;2022-07-10T03:00:14;99425.20;;;12.03;100.00
23341;BME280;12239;53.404;23.492;2022-07-10T03:03:04;99426.52;;;12.08;100.00
23341;BME280;12239;53.404;23.492;2022-07-10T03:05:53;99427.25;;;12.16;100.00
23341;BME280;12239;53.404;23.492;2022-07-10T03:08:43;99425.88;;;12.19;100.00
23341;BME280;12239;53.404;23.492;2022-07-10T03:11:33;99425.45;;;12.11;100.00
23341;BME280;12239;53.404;23.492;2022-07-10T03:14:22;99426.04;;;12.09;100.00
23341;BME280;12239;53.404;23.492;2022-07-10T03:17:12;99423.54;;;12.10;100.00
23341;BME280;12239;53.404;23.492;2022-07-10T03:20:01;99425.90;;;12.18;100.00
23341;BME280;12239;53.404;23.492;2022-07-10T03:22:51;99423.09;;;12.26;100.00
23341;BME280;12239;53.404;23.492;2022-07-10T03:25:40;99421.21;;;12.36;100.00
23341;BME280;12239;53.404;23.492;2022-07-10T03:28:30;99417.56;;;12.40;100.00
23341;BME280;12239;53.404;23.492;2022-07-10T03:31:21;99417.27;;;12.45;100.00
23341;BME280;12239;53.404;23.492;2022-07-10T03:34:11;99418.38;;;12.46;100.00
23341;BME280;12239;53.404;23.492;2022-07-10T03:37:00;99412.93;;;12.54;100.00
23341;BME280;12239;53.404;23.492;2022-07-10T03:39:33;99418.34;;;12.63;100.00
23341;BME280;12239;53.404;23.492;2022-07-10T03:42:22;99418.09;;;12.57;100.00
23341;BME280;12239;53.404;23.492;2022-07-10T03:45:11;99414.58;;;12.45;100.00
23341;BME280;12239;53.404;23.492;2022-07-10T03:48:01;99415.65;;;12.36;100.00
23341;BME280;12239;53.404;23.492;2022-07-10T03:50:50;99414.10;;;12.35;100.00
23341;BME280;12239;53.404;23.492;2022-07-10T03:53:40;99415.08;;;12.45;100.00
23341;BME280;12239;53.404;23.492;2022-07-10T03:56:30;99407.15;;;12.76;100.00
23341;BME280;12239;53.404;23.492;2022-07-10T03:59:37;99405.75;;;13.22;100.00
23341;BME280;12239;53.404;23.492;2022-07-10T04:02:26;99401.84;;;13.71;100.00
23341;BME280;12239;53.404;23.492;2022-07-10T04:05:16;99395.90;;;14.21;100.00
23341;BME280;12239;53.404;23.492;2022-07-10T04:08:05;99392.98;;;14.74;100.00
23341;BME280;12239;53.404;23.492;2022-07-10T04:10:55;99389.60;;;15.22;100.00
23341;BME280;12239;53.404;23.492;2022-07-10T04:13:45;99382.55;;;15.66;97.84
23341;BME280;12239;53.404;23.492;2022-07-10T04:16:34;99382.84;;;16.05;96.65
23341;BME280;12239;53.404;23.492;2022-07-10T04:19:24;99387.30;;;16.47;94.93
23341;BME280;12239;53.404;23.492;2022-07-10T04:22:13;99394.70;;;16.89;91.98
23341;BME280;12239;53.404;23.492;2022-07-10T04:25:04;99393.04;;;17.01;89.94
23341;BME280;12239;53.404;23.492;2022-07-10T04:27:53;99394.16;;;16.95;88.51
23341;BME280;12239;53.404;23.492;2022-07-10T04:30:43;99389.73;;;17.04;89.12
23341;BME280;12239;53.404;23.492;2022-07-10T04:33:32;99389.45;;;17.05;88.29
23341;BME280;12239;53.404;23.492;2022-07-10T04:36:22;99386.63;;;17.13;87.98
23341;BME280;12239;53.404;23.492;2022-07-10T04:39:12;99383.26;;;17.17;86.55
23341;BME280;12239;53.404;23.492;2022-07-10T04:42:04;99378.35;;;17.24;87.19
23341;BME280;12239;53.404;23.492;2022-07-10T04:44:54;99377.33;;;17.49;85.60
23341;BME280;12239;53.404;23.492;2022-07-10T04:47:44;99372.30;;;17.63;86.15
23341;BME280;12239;53.404;23.492;2022-07-10T04:50:33;99363.85;;;17.99;86.20
23341;BME280;12239;53.404;23.492;2022-07-10T04:53:23;99361.77;;;18.35;84.24
23341;BME280;12239;53.404;23.492;2022-07-10T04:56:12;99358.50;;;18.51;81.75
23341;BME280;12239;53.404;23.492;2022-07-10T04:59:02;99356.66;;;18.25;82.10
23341;BME280;12239;53.404;23.492;2022-07-10T05:01:51;99356.31;;;17.81;83.03
23341;BME280;12239;53.404;23.492;2022-07-10T05:04:41;99356.73;;;17.23;84.86
23341;BME280;12239;53.404;23.492;2022-07-10T05:07:30;99354.70;;;16.56;86.31
23341;BME280;12239;53.404;23.492;2022-07-10T05:10:20;99359.55;;;15.94;89.44
23341;BME280;12239;53.404;23.492;2022-07-10T05:13:11;99357.30;;;15.56;92.11
23341;BME280;12239;53.404;23.492;2022-07-10T05:16:04;99352.16;;;15.42;93.83
23341;BME280;12239;53.404;23.492;2022-07-10T05:18:53;99354.08;;;15.35;94.99
23341;BME280;12239;53.404;23.492;2022-07-10T05:21:43;99353.79;;;15.62;95.07
23341;BME280;12239;53.404;23.492;2022-07-10T05:24:33;99349.59;;;15.83;93.54
23341;BME280;12239;53.404;23.492;2022-07-10T05:27:22;99349.71;;;15.72;92.37
23341;BME280;12239;53.404;23.492;2022-07-10T05:30:12;99347.26;;;15.65;93.63
23341;BME280;12239;53.404;23.492;2022-07-10T05:33:02;99348.73;;;15.67;94.09
23341;BME280;12239;53.404;23.492;2022-07-10T05:35:51;99347.03;;;15.51;93.45
23341;BME280;12239;53.404;23.492;2022-07-10T05:38:41;99347.94;;;15.42;93.31
23341;BME280;12239;53.404;23.492;2022-07-10T05:41:31;99343.09;;;15.18;93.09
23341;BME280;12239;53.404;23.492;2022-07-10T05:44:09;99342.80;;;14.98;94.31
23341;BME280;12239;53.404;23.492;2022-07-10T05:46:58;99339.86;;;14.89;95.45
23341;BME280;12239;53.404;23.492;2022-07-10T05:49:48;99338.89;;;14.84;96.56
23341;BME280;12239;53.404;23.492;2022-07-10T05:52:38;99332.86;;;14.88;97.51
23341;BME280;12239;53.404;23.492;2022-07-10T05:55:27;99332.65;;;15.05;97.57
23341;BME280;12239;53.404;23.492;2022-07-10T05:58:17;99334.08;;;15.15;97.89
23341;BME280;12239;53.404;23.492;2022-07-10T06:01:07;99338.64;;;15.31;97.36
23341;BME280;12239;53.404;23.492;2022-07-10T06:03:56;99340.42;;;15.31;96.67
23341;BME280;12239;53.404;23.492;2022-07-10T06:06:46;99338.86;;;15.31;96.20
23341;BME280;12239;53.404;23.492;2022-07-10T06:09:36;99336.27;;;15.33;97.02
23341;BME280;12239;53.404;23.492;2022-07-10T06:12:26;99334.85;;;15.31;95.45
23341;BME280;12239;53.404;23.492;2022-07-10T06:15:15;99337.55;;;15.20;96.07
23341;BME280;12239;53.404;23.492;2022-07-10T06:18:05;99343.27;;;15.13;95.78
23341;BME280;12239;53.404;23.492;2022-07-10T06:20:54;99339.91;;;15.09;96.30
23341;BME280;12239;53.404;23.492;2022-07-10T06:23:44;99338.05;;;15.14;96.25
23341;BME280;12239;53.404;23.492;2022-07-10T06:26:34;99337.58;;;14.97;96.42
23341;BME280;12239;53.404;23.492;2022-07-10T06:29:23;99336.19;;;14.94;96.21
23341;BME280;12239;53.404;23.492;2022-07-10T06:32:13;99335.05;;;14.90;94.73
23341;BME280;12239;53.404;23.492;2022-07-10T06:35:03;99335.55;;;14.97;95.67
23341;BME280;12239;53.404;23.492;2022-07-10T06:37:52;99338.89;;;15.07;95.99
23341;BME280;12239;53.404;23.492;2022-07-10T06:40:42;99340.99;;;15.09;96.17
23341;BME280;12239;53.404;23.492;2022-07-10T06:43:34;99347.45;;;15.11;96.51
23341;BME280;12239;53.404;23.492;2022-07-10T06:46:23;99348.69;;;15.29;95.68
23341;BME280;12239;53.404;23.492;2022-07-10T06:49:13;99346.86;;;15.47;95.19
23341;BME280;12239;53.404;23.492;2022-07-10T06:52:02;99348.63;;;15.61;93.12
23341;BME280;12239;53.404;23.492;2022-07-10T06:54:53;99347.73;;;15.67;92.29
23341;BME280;12239;53.404;23.492;2022-07-10T06:57:42;99340.64;;;15.60;89.46
23341;BME280;12239;53.404;23.492;2022-07-10T07:00:32;99339.87;;;15.54;89.06
23341;BME280;12239;53.404;23.492;2022-07-10T07:03:21;99332.31;;;15.71;90.92
23341;BME280;12239;53.404;23.492;2022-07-10T07:06:11;99337.40;;;15.86;87.43
23341;BME280;12239;53.404;23.492;2022-07-10T07:09:00;99331.44;;;15.90;87.45
23341;BME280;12239;53.404;23.492;2022-07-10T07:11:50;99330.94;;;16.04;86.20
23341;BME280;12239;53.404;23.492;2022-07-10T07:14:40;99326.27;;;16.16;85.40
23341;BME280;12239;53.404;23.492;2022-07-10T07:17:29;99328.15;;;16.15;84.83
23341;BME280;12239;53.404;23.492;2022-07-10T07:20:25;99325.40;;;16.14;83.16
23341;BME280;12239;53.404;23.492;2022-07-10T07:23:40;99332.26;;;16.11;83.37
23341;BME280;12239;53.404;23.492;2022-07-10T07:26:30;99331.70;;;16.05;83.05
23341;BME280;12239;53.404;23.492;2022-07-10T07:29:19;99331.90;;;16.05;83.15
23341;BME280;12239;53.404;23.492;2022-07-10T07:32:09;99334.40;;;16.01;82.14
23341;BME280;12239;53.404;23.492;2022-07-10T07:34:58;99333.89;;;15.80;82.41
23341;BME280;12239;53.404;23.492;2022-07-10T07:37:48;99333.34;;;15.68;83.27
23341;BME280;12239;53.404;23.492;2022-07-10T07:40:38;99336.36;;;15.76;82.49
23341;BME280;12239;53.404;23.492;2022-07-10T07:43:10;99332.34;;;15.81;80.73
23341;BME280;12239;53.404;23.492;2022-07-10T07:46:00;99334.39;;;15.99;77.38
23341;BME280;12239;53.404;23.492;2022-07-10T07:48:49;99338.36;;;16.04;75.04
23341;BME280;12239;53.404;23.492;2022-07-10T07:51:39;99334.04;;;16.02;75.11
23341;BME280;12239;53.404;23.492;2022-07-10T07:54:17;99331.70;;;15.99;76.71
23341;BME280;12239;53.404;23.492;2022-07-10T07:57:07;99338.30;;;16.06;76.91
23341;BME280;12239;53.404;23.492;2022-07-10T07:59:57;99338.67;;;16.14;71.41
23341;BME280;12239;53.404;23.492;2022-07-10T08:02:46;99335.08;;;16.24;71.17
23341;BME280;12239;53.404;23.492;2022-07-10T08:05:36;99335.55;;;16.48;71.30
23341;BME280;12239;53.404;23.492;2022-07-10T08:08:25;99334.40;;;16.52;70.83
23341;BME280;12239;53.404;23.492;2022-07-10T08:11:15;99337.07;;;16.63;72.56
23341;BME280;12239;53.404;23.492;2022-07-10T08:14:05;99341.06;;;16.86;66.19
23341;BME280;12239;53.404;23.492;2022-07-10T08:16:54;99346.28;;;16.85;64.15
23341;BME280;12239;53.404;23.492;2022-07-10T08:19:44;99347.52;;;16.76;61.99
23341;BME280;12239;53.404;23.492;2022-07-10T08:22:33;99342.34;;;16.76;65.03
23341;BME280;12239;53.404;23.492;2022-07-10T08:25:23;99337.09;;;16.86;63.58
23341;BME280;12239;53.404;23.492;2022-07-10T08:28:12;99343.52;;;16.98;64.13
23341;BME280;12239;53.404;23.492;2022-07-10T08:31:02;99339.53;;;17.08;63.20
23341;BME280;12239;53.404;23.492;2022-07-10T08:33:52;99346.23;;;17.37;62.27
23341;BME280;12239;53.404;23.492;2022-07-10T08:36:41;99337.42;;;17.48;60.02
23341;BME280;12239;53.404;23.492;2022-07-10T08:39:31;99333.01;;;17.51;59.23
23341;BME280;12239;53.404;23.492;2022-07-10T08:42:20;99331.14;;;17.66;58.24
23341;BME280;12239;53.404;23.492;2022-07-10T08:45:11;99331.18;;;17.73;55.70
23341;BME280;12239;53.404;23.492;2022-07-10T08:48:03;99330.39;;;17.52;55.34
23341;BME280;12239;53.404;23.492;2022-07-10T08:50:54;99336.18;;;17.46;51.72
23341;BME280;12239;53.404;23.492;2022-07-10T08:53:43;99337.92;;;17.49;53.73
23341;BME280;12239;53.404;23.492;2022-07-10T08:56:34;99334.16;;;17.33;52.08
23341;BME280;12239;53.404;23.492;2022-07-10T08:59:24;99331.88;;;17.45;54.09
23341;BME280;12239;53.404;23.492;2022-07-10T09:02:13;99330.13;;;17.71;53.69
23341;BME280;12239;53.404;23.492;2022-07-10T09:05:03;99332.96;;;17.80;53.14
23341;BME280;12239;53.404;23.492;2022-07-10T09:07:56;99329.87;;;17.46;54.03
23341;BME280;12239;53.404;23.492;2022-07-10T09:10:46;99334.77;;;17.11;55.06
23341;BME280;12239;53.404;23.492;2022-07-10T09:13:36;99331.47;;;16.94;55.38
23341;BME280;12239;53.404;23.492;2022-07-10T09:16:46;99328.16;;;16.84;57.85
23341;BME280;12239;53.404;23.492;2022-07-10T09:19:39;99330.13;;;16.84;55.88
23341;BME280;12239;53.404;23.492;2022-07-10T09:22:29;99324.98;;;16.92;57.28
23341;BME280;12239;53.404;23.492;2022-07-10T09:25:20;99326.55;;;17.05;54.84
23341;BME280;12239;53.404;23.492;2022-07-10T09:28:09;99326.22;;;17.01;57.08
23341;BME280;12239;53.404;23.492;2022-07-10T09:30:59;99323.65;;;16.92;55.13
23341;BME280;12239;53.404;23.492;2022-07-10T09:33:48;99327.91;;;16.72;56.14
23341;BME280;12239;53.404;23.492;2022-07-10T09:36:38;99319.53;;;16.58;56.70
23341;BME280;12239;53.404;23.492;2022-07-10T09:39:27;99315.17;;;16.57;58.67
23341;BME280;12239;53.404;23.492;2022-07-10T09:42:25;99311.34;;;16.64;57.83
23341;BME280;12239;53.404;23.492;2022-07-10T09:45:16;99305.42;;;16.65;57.96
23341;BME280;12239;53.404;23.492;2022-07-10T09:48:05;99301.70;;;16.76;59.18
23341;BME280;12239;53.404;23.492;2022-07-10T09:50:55;99299.18;;;16.89;57.26
23341;BME280;12239;53.404;23.492;2022-07-10T09:53:44;99291.27;;;16.98;55.25
23341;BME280;12239;53.404;23.492;2022-07-10T09:56:39;99289.81;;;17.11;54.44
23341;BME280;12239;53.404;23.492;2022-07-10T09:59:30;99289.15;;;17.27;55.09
23341;BME280;12239;53.404;23.492;2022-07-10T10:02:20;99289.63;;;17.40;53.33
23341;BME280;12239;53.404;23.492;2022-07-10T10:05:10;99289.16;;;17.30;53.13
23341;BME280;12239;53.404;23.492;2022-07-10T10:08:00;99287.53;;;17.28;54.40
23341;BME280;12239;53.404;23.492;2022-07-10T10:10:51;99287.85;;;17.31;56.81
23341;BME280;12239;53.404;23.492;2022-07-10T10:13:40;99284.80;;;17.45;55.84
23341;BME280;12239;53.404;23.492;2022-07-10T10:16:31;99284.23;;;17.54;56.05
23341;BME280;12239;53.404;23.492;2022-07-10T10:19:22;99287.62;;;17.53;56.68
23341;BME280;12239;53.404;23.492;2022-07-10T10:22:29;99290.08;;;17.57;57.37
23341;BME280;12239;53.404;23.492;2022-07-10T10:25:19;99288.86;;;17.77;56.22
23341;BME280;12239;53.404;23.492;2022-07-10T10:28:09;99287.31;;;17.98;56.35
23341;BME280;12239;53.404;23.492;2022-07-10T10:30:59;99279.83;;;18.25;55.24
23341;BME280;12239;53.404;23.492;2022-07-10T10:33:53;99286.27;;;18.53;55.28
23341;BME280;12239;53.404;23.492;2022-07-10T10:36:47;99283.33;;;18.72;53.09
23341;BME280;12239;53.404;23.492;2022-07-10T10:42:40;99280.69;;;18.57;51.85
23341;BME280;12239;53.404;23.492;2022-07-10T10:45:34;99286.66;;;18.65;52.56
23341;BME280;12239;53.404;23.492;2022-07-10T10:48:24;99286.31;;;18.60;51.77
23341;BME280;12239;53.404;23.492;2022-07-10T10:51:14;99288.71;;;18.51;52.12
23341;BME280;12239;53.404;23.492;2022-07-10T10:54:05;99287.54;;;18.37;53.07
23341;BME280;12239;53.404;23.492;2022-07-10T10:59:58;99288.10;;;18.29;52.67
23341;BME280;12239;53.404;23.492;2022-07-10T11:02:48;99291.23;;;17.99;53.82
23341;BME280;12239;53.404;23.492;2022-07-10T11:05:42;99289.52;;;18.03;53.44
23341;BME280;12239;53.404;23.492;2022-07-10T11:08:39;99285.70;;;18.21;52.48
23341;BME280;12239;53.404;23.492;2022-07-10T11:11:38;99287.53;;;18.13;52.08
23341;BME280;12239;53.404;23.492;2022-07-10T11:14:31;99281.86;;;18.19;52.09
23341;BME280;12239;53.404;23.492;2022-07-10T11:17:24;99278.45;;;18.37;51.51
23341;BME280;12239;53.404;23.492;2022-07-10T11:20:17;99279.14;;;18.48;52.98
23341;BME280;12239;53.404;23.492;2022-07-10T11:23:15;99278.77;;;18.64;50.92
23341;BME280;12239;53.404;23.492;2022-07-10T11:26:07;99278.00;;;18.76;50.43
23341;BME280;12239;53.404;23.492;2022-07-10T11:28:59;99277.02;;;19.02;50.56
23341;BME280;12239;53.404;23.492;2022-07-10T11:31:53;99281.16;;;19.19;48.39
23341;BME280;12239;53.404;23.492;2022-07-10T11:34:43;99271.81;;;19.47;48.15
23341;BME280;12239;53.404;23.492;2022-07-10T11:37:32;99265.72;;;19.85;40.62
23341;BME280;12239;53.404;23.492;2022-07-10T11:40:22;99267.13;;;19.92;38.39
23341;BME280;12239;53.404;23.492;2022-07-10T11:43:11;99267.77;;;20.02;35.34
23341;BME280;12239;53.404;23.492;2022-07-10T11:46:05;99268.80;;;19.87;36.98
23341;BME280;12239;53.404;23.492;2022-07-10T11:48:56;99272.45;;;19.61;37.51
23341;BME280;12239;53.404;23.492;2022-07-10T11:51:46;99274.95;;;19.24;39.01
23341;BME280;12239;53.404;23.492;2022-07-10T11:54:36;99269.80;;;19.04;40.35
23341;BME280;12239;53.404;23.492;2022-07-10T11:57:27;99267.81;;;18.84;42.90
23341;BME280;12239;53.404;23.492;2022-07-10T12:00:22;99276.08;;;18.71;43.69
23341;BME280;12239;53.404;23.492;2022-07-10T12:03:18;99281.14;;;18.48;43.67
23341;BME280;12239;53.404;23.492;2022-07-10T12:06:08;99274.50;;;18.20;44.01
23341;BME280;12239;53.404;23.492;2022-07-10T12:09:02;99278.85;;;18.01;45.06
23341;BME280;12239;53.404;23.492;2022-07-10T12:12:02;99275.52;;;17.82;45.51
23341;BME280;12239;53.404;23.492;2022-07-10T12:14:52;99268.39;;;17.73;46.01
23341;BME280;12239;53.404;23.492;2022-07-10T12:17:50;99274.08;;;17.71;47.40
23341;BME280;12239;53.404;23.492;2022-07-10T12:20:40;99268.16;;;17.68;47.13
23341;BME280;12239;53.404;23.492;2022-07-10T12:23:33;99272.01;;;17.83;48.10
23341;BME280;12239;53.404;23.492;2022-07-10T12:26:23;99269.80;;;18.16;47.26
23341;BME280;12239;53.404;23.492;2022-07-10T12:29:20;99268.02;;;18.49;46.20
23341;BME280;12239;53.404;23.492;2022-07-10T12:32:10;99262.71;;;18.76;45.97
23341;BME280;12239;53.404;23.492;2022-07-10T12:35:07;99269.70;;;18.87;44.41
23341;BME280;12239;53.404;23.492;2022-07-10T12:38:02;99266.36;;;18.81;43.14
23341;BME280;12239;53.404;23.492;2022-07-10T12:41:04;99271.58;;;18.78;42.90
23341;BME280;12239;53.404;23.492;2022-07-10T12:43:55;99275.40;;;18.60;43.49
23341;BME280;12239;53.404;23.492;2022-07-10T12:46:44;99273.88;;;18.53;44.21
23341;BME280;12239;53.404;23.492;2022-07-10T12:49:52;99272.39;;;18.55;44.96
23341;BME280;12239;53.404;23.492;2022-07-10T12:52:42;99279.71;;;18.49;45.17
23341;BME280;12239;53.404;23.492;2022-07-10T12:55:35;99270.71;;;18.41;46.74
23341;BME280;12239;53.404;23.492;2022-07-10T12:58:25;99273.48;;;18.37;46.62
23341;BME280;12239;53.404;23.492;2022-07-10T13:01:15;99276.58;;;18.34;46.45
23341;BME280;12239;53.404;23.492;2022-07-10T13:04:04;99277.45;;;18.32;45.86
23341;BME280;12239;53.404;23.492;2022-07-10T13:06:39;99282.96;;;18.31;44.96
23341;BME280;12239;53.404;23.492;2022-07-10T13:09:29;99281.29;;;18.18;45.58
23341;BME280;12239;53.404;23.492;2022-07-10T13:12:18;99282.23;;;18.19;46.65
23341;BME280;12239;53.404;23.492;2022-07-10T13:14:50;99279.79;;;18.18;48.43
23341;BME280;12239;53.404;23.492;2022-07-10T13:17:44;99281.34;;;18.15;48.45
23341;BME280;12239;53.404;23.492;2022-07-10T13:20:33;99285.66;;;18.10;48.50
23341;BME280;12239;53.404;23.492;2022-07-10T13:23:23;99279.98;;;18.22;49.10
23341;BME280;12239;53.404;23.492;2022-07-10T13:26:13;99284.11;;;18.37;48.78
23341;BME280;12239;53.404;23.492;2022-07-10T13:29:03;99284.36;;;18.60;48.84
23341;BME280;12239;53.404;23.492;2022-07-10T13:31:52;99283.50;;;18.90;45.98
23341;BME280;12239;53.404;23.492;2022-07-10T13:34:25;99282.31;;;18.93;44.99
23341;BME280;12239;53.404;23.492;2022-07-10T13:37:14;99280.80;;;18.77;44.40
23341;BME280;12239;53.404;23.492;2022-07-10T13:39:53;99280.77;;;18.63;45.64
23341;BME280;12239;53.404;23.492;2022-07-10T13:42:31;99274.03;;;18.59;44.13
23341;BME280;12239;53.404;23.492;2022-07-10T13:45:21;99272.38;;;18.61;45.09
23341;BME280;12239;53.404;23.492;2022-07-10T13:48:11;99267.55;;;18.76;43.31
23341;BME280;12239;53.404;23.492;2022-07-10T13:51:00;99268.48;;;18.95;43.78
23341;BME280;12239;53.404;23.492;2022-07-10T13:53:50;99266.33;;;19.32;44.68
23341;BME280;12239;53.404;23.492;2022-07-10T13:56:39;99269.32;;;19.65;43.14
23341;BME280;12239;53.404;23.492;2022-07-10T13:59:31;99265.17;;;19.72;43.27
23341;BME280;12239;53.404;23.492;2022-07-10T14:02:21;99266.36;;;19.54;44.38
23341;BME280;12239;53.404;23.492;2022-07-10T14:05:10;99265.42;;;19.36;44.77
23341;BME280;12239;53.404;23.492;2022-07-10T14:08:00;99266.76;;;19.09;46.30
23341;BME280;12239;53.404;23.492;2022-07-10T14:10:50;99264.41;;;19.16;46.99
23341;BME280;12239;53.404;23.492;2022-07-10T14:13:40;99267.77;;;19.19;46.11
23341;BME280;12239;53.404;23.492;2022-07-10T14:16:30;99269.46;;;19.05;45.86
23341;BME280;12239;53.404;23.492;2022-07-10T14:19:19;99273.40;;;18.86;44.80
23341;BME280;12239;53.404;23.492;2022-07-10T14:22:09;99273.23;;;18.67;45.34
23341;BME280;12239;53.404;23.492;2022-07-10T14:24:59;99275.50;;;18.52;46.41
23341;BME280;12239;53.404;23.492;2022-07-10T14:27:48;99272.31;;;18.49;47.38
23341;BME280;12239;53.404;23.492;2022-07-10T14:30:18;99278.90;;;18.51;47.40
23341;BME280;12239;53.404;23.492;2022-07-10T14:33:07;99277.63;;;18.50;48.26
23341;BME280;12239;53.404;23.492;2022-07-10T14:35:57;99277.48;;;18.51;48.55
23341;BME280;12239;53.404;23.492;2022-07-10T14:38:47;99279.34;;;18.50;48.87
23341;BME280;12239;53.404;23.492;2022-07-10T14:41:37;99281.61;;;18.57;49.55
23341;BME280;12239;53.404;23.492;2022-07-10T14:44:26;99282.73;;;18.67;48.63
23341;BME280;12239;53.404;23.492;2022-07-10T14:47:16;99281.16;;;18.72;47.40
23341;BME280;12239;53.404;23.492;2022-07-10T14:50:06;99281.15;;;18.71;47.69
23341;BME280;12239;53.404;23.492;2022-07-10T14:52:55;99278.13;;;18.81;46.76